Wetterdaten: Sonntag, 21.09.2014
Datum Zeit Temperatur Luftfeuchte Luftdruck Regen Wind Richtung Richtung Taupunkt Windchill Windben
21.09.2014 00:00 12,0 C 89 % 1020,3 hPa 0,0 l/m 0,0 km/h (0 Bft) S-SO 157 10,2 C 22,8 C 0,0 km/h (0 Bft)
21.09.2014 00:10 11,8 C 89 % 1020,4 hPa 0,0 l/m 0,0 km/h (0 Bft) S-SO 157 10,0 C 22,8 C 0,0 km/h (0 Bft)
21.09.2014 00:20 11,0 C 89 % 1020,4 hPa 0,0 l/m 0,0 km/h (0 Bft) S-SO 157 9,3 C 22,8 C 0,0 km/h (0 Bft)
21.09.2014 00:30 10,6 C 89 % 1020,2 hPa 0,0 l/m 0,0 km/h (0 Bft) S-SO 157 8,9 C 22,8 C 0,0 km/h (0 Bft)
21.09.2014 00:40 10,4 C 89 % 1020,2 hPa 0,0 l/m 0,0 km/h (0 Bft) S-SO 157 8,7 C 22,8 C 0,0 km/h (0 Bft)
21.09.2014 00:50 10,5 C 89 % 1020,3 hPa 0,0 l/m 0,0 km/h (0 Bft) S-SO 157 8,8 C 22,8 C 0,0 km/h (0 Bft)
21.09.2014 01:00 10,6 C 90 % 1020,3 hPa 0,0 l/m 0,0 km/h (0 Bft) S-SO 157 9,0 C 22,8 C 0,0 km/h (0 Bft)
21.09.2014 01:10 11,0 C 90 % 1020,2 hPa 0,0 l/m 0,0 km/h (0 Bft) S-SO 157 9,4 C 22,8 C 0,0 km/h (0 Bft)
21.09.2014 01:20 11,7 C 91 % 1020,2 hPa 0,0 l/m 0,0 km/h (0 Bft) S-SO 157 10,3 C 22,8 C 0,0 km/h (0 Bft)
21.09.2014 01:30 12,1 C 91 % 1020,2 hPa 0,0 l/m 0,0 km/h (0 Bft) S-SO 157 10,7 C 22,8 C 0,0 km/h (0 Bft)
21.09.2014 01:40 12,5 C 91 % 1020,2 hPa 0,0 l/m 0,0 km/h (0 Bft) S-SO 157 11,1 C 22,8 C 0,0 km/h (0 Bft)
21.09.2014 01:50 12,6 C 91 % 1020,2 hPa 0,0 l/m 0,0 km/h (0 Bft) S-SO 157 11,2 C 22,8 C 0,0 km/h (0 Bft)
21.09.2014 02:00 12,6 C 89 % 1020,2 hPa 0,0 l/m 0,0 km/h (0 Bft) S-SO 157 10,8 C 22,8 C 0,0 km/h (0 Bft)
21.09.2014 02:10 12,4 C 89 % 1020,2 hPa 0,0 l/m 0,0 km/h (0 Bft) S-SO 157 10,6 C 22,8 C 0,0 km/h (0 Bft)
21.09.2014 02:20 11,9 C 89 % 1020,2 hPa 0,0 l/m 0,0 km/h (0 Bft) S-SO 157 10,1 C 22,8 C 0,0 km/h (0 Bft)
21.09.2014 02:30 11,1 C 88 % 1020,0 hPa 0,0 l/m 0,0 km/h (0 Bft) S-SO 157 9,2 C 22,8 C 0,0 km/h (0 Bft)
21.09.2014 02:38 10,9 C 89 % 1020,0 hPa 0,0 l/m 0,0 km/h (0 Bft) S-SO 157 9,2 C 22,8 C 0,0 km/h (0 Bft)
21.09.2014 02:40 10,9 C 89 % 1020,0 hPa 0,0 l/m 0,0 km/h (0 Bft) S-SO 157 9,2 C 22,8 C 0,0 km/h (0 Bft)
21.09.2014 02:50 10,5 C 89 % 1019,9 hPa 0,0 l/m 0,0 km/h (0 Bft) S-SO 157 8,8 C 22,8 C 0,0 km/h (0 Bft)
21.09.2014 03:00 10,2 C 89 % 1019,9 hPa 0,0 l/m 0,0 km/h (0 Bft) S-SO 157 8,5 C 22,8 C 0,0 km/h (0 Bft)
21.09.2014 03:10 10,6 C 90 % 1019,9 hPa 0,0 l/m 0,0 km/h (0 Bft) S-SO 157 9,0 C 22,8 C 0,0 km/h (0 Bft)
21.09.2014 03:20 11,5 C 91 % 1019,9 hPa 0,0 l/m 0,0 km/h (0 Bft) S-SO 157 10,1 C 22,8 C 0,0 km/h (0 Bft)
21.09.2014 03:30 11,3 C 91 % 1019,7 hPa 0,0 l/m 0,0 km/h (0 Bft) S-SO 157 9,9 C 22,8 C 0,0 km/h (0 Bft)
21.09.2014 03:40 11,5 C 91 % 1019,7 hPa 0,0 l/m 0,0 km/h (0 Bft) S-SO 157 10,1 C 22,8 C 0,0 km/h (0 Bft)
21.09.2014 03:50 12,8 C 91 % 1019,7 hPa 0,0 l/m 0,0 km/h (0 Bft) S-SO 157 11,4 C 22,8 C 0,0 km/h (0 Bft)
21.09.2014 04:00 12,7 C 90 % 1019,7 hPa 0,0 l/m 0,0 km/h (0 Bft) S-SO 157 11,1 C 22,8 C 0,0 km/h (0 Bft)
21.09.2014 04:10 11,9 C 89 % 1019,3 hPa 0,0 l/m 0,0 km/h (0 Bft) S-SO 157 10,1 C 22,8 C 0,0 km/h (0 Bft)
21.09.2014 04:20 11,1 C 89 % 1019,3 hPa 0,0 l/m 0,0 km/h (0 Bft) S-SO 157 9,4 C 22,8 C 0,0 km/h (0 Bft)
21.09.2014 04:30 10,8 C 89 % 1019,4 hPa 0,0 l/m 0,0 km/h (0 Bft) S-SO 157 9,1 C 22,8 C 0,0 km/h (0 Bft)
21.09.2014 04:40 10,6 C 90 % 1019,4 hPa 0,0 l/m 0,0 km/h (0 Bft) S-SO 157 9,0 C 22,8 C 0,0 km/h (0 Bft)
21.09.2014 04:50 10,7 C 90 % 1019,4 hPa 0,0 l/m 0,0 km/h (0 Bft) S-SO 157 9,1 C 22,8 C 0,0 km/h (0 Bft)
21.09.2014 05:00 10,4 C 90 % 1019,4 hPa 0,0 l/m 0,0 km/h (0 Bft) S-SO 157 8,8 C 22,8 C 0,0 km/h (0 Bft)
21.09.2014 05:10 10,1 C 90 % 1019,5 hPa 0,0 l/m 0,0 km/h (0 Bft) S-SO 157 8,5 C 22,8 C 0,0 km/h (0 Bft)
21.09.2014 05:20 9,8 C 90 % 1019,5 hPa 0,0 l/m 0,0 km/h (0 Bft) S-SO 157 8,2 C 22,8 C 0,0 km/h (0 Bft)
21.09.2014 05:30 9,7 C 91 % 1019,0 hPa 0,0 l/m 0,0 km/h (0 Bft) S-SO 157 8,3 C 22,8 C 0,0 km/h (0 Bft)
21.09.2014 05:39 9,5 C 91 % 1019,0 hPa 0,0 l/m 0,0 km/h (0 Bft) S-SO 157 8,1 C 22,8 C 0,0 km/h (0 Bft)
21.09.2014 05:40 9,5 C 91 % 1019,0 hPa 0,0 l/m 0,0 km/h (0 Bft) S-SO 157 8,1 C 22,8 C 0,0 km/h (0 Bft)
21.09.2014 05:50 9,9 C 91 % 1019,1 hPa 0,0 l/m 0,0 km/h (0 Bft) S-SO 157 8,5 C 22,8 C 0,0 km/h (0 Bft)
21.09.2014 06:00 9,4 C 91 % 1019,1 hPa 0,0 l/m 0,0 km/h (0 Bft) S-SO 157 8,0 C 22,8 C 0,0 km/h (0 Bft)
21.09.2014 06:10 9,1 C 92 % 1019,1 hPa 0,0 l/m 0,0 km/h (0 Bft) S-SO 157 7,9 C 22,8 C 0,0 km/h (0 Bft)
21.09.2014 06:20 9,1 C 92 % 1019,1 hPa 0,0 l/m 0,0 km/h (0 Bft) S-SO 157 7,9 C 22,8 C 0,0 km/h (0 Bft)
21.09.2014 06:30 9,2 C 92 % 1019,2 hPa 0,0 l/m 0,0 km/h (0 Bft) S-SO 157 8,0 C 22,8 C 0,0 km/h (0 Bft)
21.09.2014 06:40 9,1 C 93 % 1019,2 hPa 0,0 l/m 0,0 km/h (0 Bft) S-SO 157 8,0 C 22,8 C 0,0 km/h (0 Bft)
21.09.2014 06:50 9,1 C 93 % 1019,0 hPa 0,0 l/m 0,0 km/h (0 Bft) S-SO 157 8,0 C 22,8 C 0,0 km/h (0 Bft)
21.09.2014 07:00 9,1 C 93 % 1019,0 hPa 0,0 l/m 0,0 km/h (0 Bft) S-SO 157 8,0 C 22,8 C 0,0 km/h (0 Bft)
21.09.2014 07:10 9,1 C 93 % 1018,8 hPa 0,0 l/m 0,0 km/h (0 Bft) S-SO 157 8,0 C 22,8 C 0,0 km/h (0 Bft)
21.09.2014 07:20 9,4 C 93 % 1018,8 hPa 0,0 l/m 0,0 km/h (0 Bft) S-SO 157 8,3 C 22,8 C 0,0 km/h (0 Bft)
21.09.2014 07:30 9,5 C 94 % 1018,8 hPa 0,0 l/m 0,0 km/h (0 Bft) S-SO 157 8,6 C 22,8 C 0,0 km/h (0 Bft)
21.09.2014 07:40 9,7 C 94 % 1018,8 hPa 0,0 l/m 0,0 km/h (0 Bft) S-SO 157 8,8 C 22,8 C 0,0 km/h (0 Bft)
21.09.2014 07:50 10,3 C 94 % 1018,8 hPa 0,0 l/m 0,0 km/h (0 Bft) S-SO 157 9,4 C 22,8 C 0,0 km/h (0 Bft)
21.09.2014 08:00 10,9 C 94 % 1018,8 hPa 0,0 l/m 0,0 km/h (0 Bft) S-SO 157 10,0 C 22,8 C 0,0 km/h (0 Bft)
21.09.2014 08:10 10,9 C 94 % 1018,8 hPa 0,0 l/m 0,0 km/h (0 Bft) S-SO 157 10,0 C 22,8 C 0,0 km/h (0 Bft)
21.09.2014 08:20 11,1 C 94 % 1018,8 hPa 0,0 l/m 0,0 km/h (0 Bft) S-SO 157 10,2 C 22,8 C 0,0 km/h (0 Bft)
21.09.2014 08:30 11,4 C 94 % 1018,9 hPa 0,0 l/m 0,0 km/h (0 Bft) S-SO 157 10,5 C 22,8 C 0,0 km/h (0 Bft)
21.09.2014 08:40 11,7 C 94 % 1018,9 hPa 0,0 l/m 0,0 km/h (0 Bft) S-SO 157 10,8 C 22,8 C 0,0 km/h (0 Bft)
21.09.2014 08:50 12,7 C 94 % 1019,1 hPa 0,0 l/m 0,0 km/h (0 Bft) S-SO 157 11,8 C 22,8 C 0,0 km/h (0 Bft)
21.09.2014 09:00 14,9 C 93 % 1019,1 hPa 0,0 l/m 0,0 km/h (0 Bft) S-SO 157 13,8 C 22,8 C 0,0 km/h (0 Bft)
21.09.2014 09:10 17,4 C 86 % 1019,1 hPa 0,0 l/m 0,0 km/h (0 Bft) S-SO 157 15,0 C 22,8 C 0,0 km/h (0 Bft)
21.09.2014 09:20 20,0 C 75 % 1019,1 hPa 0,0 l/m 0,0 km/h (0 Bft) S-SO 157 15,4 C 22,8 C 0,0 km/h (0 Bft)
21.09.2014 09:30 16,8 C 80 % 1019,2 hPa 0,0 l/m 0,0 km/h (0 Bft) S-SO 157 13,3 C 22,8 C 0,0 km/h (0 Bft)
21.09.2014 09:38 17,4 C 76 % 1019,2 hPa 0,0 l/m 0,0 km/h (0 Bft) S-SO 157 13,1 C 22,8 C 0,0 km/h (0 Bft)
21.09.2014 09:40 17,4 C 76 % 1019,2 hPa 0,0 l/m 0,0 km/h (0 Bft) S-SO 157 13,1 C 22,8 C 0,0 km/h (0 Bft)
21.09.2014 09:50 17,1 C 77 % 1019,4 hPa 0,0 l/m 0,0 km/h (0 Bft) S-SO 157 13,0 C 22,8 C 0,0 km/h (0 Bft)
21.09.2014 10:00 17,2 C 74 % 1019,4 hPa 0,0 l/m 0,0 km/h (0 Bft) S-SO 157 12,5 C 22,8 C 0,0 km/h (0 Bft)
21.09.2014 10:10 15,7 C 77 % 1019,6 hPa 0,0 l/m 0,0 km/h (0 Bft) S-SO 157 11,7 C 22,8 C 0,0 km/h (0 Bft)
21.09.2014 10:20 15,8 C 79 % 1019,6 hPa 0,0 l/m 0,0 km/h (0 Bft) S-SO 157 12,2 C 22,8 C 0,0 km/h (0 Bft)
21.09.2014 10:30 15,8 C 79 % 1019,6 hPa 0,0 l/m 0,0 km/h (0 Bft) S-SO 157 12,2 C 22,8 C 0,0 km/h (0 Bft)
21.09.2014 10:40 15,9 C 80 % 1019,6 hPa 0,0 l/m 0,0 km/h (0 Bft) S-SO 157 12,5 C 22,8 C 0,0 km/h (0 Bft)
21.09.2014 10:50 16,0 C 79 % 1019,4 hPa 0,0 l/m 0,0 km/h (0 Bft) S-SO 157 12,4 C 22,8 C 0,0 km/h (0 Bft)
21.09.2014 11:00 16,5 C 77 % 1019,4 hPa 0,0 l/m 0,0 km/h (0 Bft) S-SO 157 12,5 C 22,8 C 0,0 km/h (0 Bft)
21.09.2014 11:10 17,6 C 74 % 1019,6 hPa 0,0 l/m 0,0 km/h (0 Bft) S-SO 157 12,9 C 22,8 C 0,0 km/h (0 Bft)
21.09.2014 11:20 17,0 C 73 % 1019,6 hPa 0,0 l/m 0,0 km/h (0 Bft) S-SO 157 12,1 C 22,8 C 0,0 km/h (0 Bft)
21.09.2014 11:30 17,3 C 73 % 1019,8 hPa 0,0 l/m 0,0 km/h (0 Bft) S-SO 157 12,4 C 22,8 C 0,0 km/h (0 Bft)
21.09.2014 11:40 17,7 C 70 % 1019,8 hPa 0,0 l/m 0,0 km/h (0 Bft) S-SO 157 12,2 C 22,8 C 0,0 km/h (0 Bft)
21.09.2014 11:50 18,3 C 68 % 1019,6 hPa 0,0 l/m 0,0 km/h (0 Bft) S-SO 157 12,3 C 22,8 C 0,0 km/h (0 Bft)
21.09.2014 12:00 18,3 C 67 % 1019,6 hPa 0,0 l/m 0,0 km/h (0 Bft) S-SO 157 12,1 C 22,8 C 0,0 km/h (0 Bft)
21.09.2014 12:10 21,5 C 59 % 1019,5 hPa 0,0 l/m 0,0 km/h (0 Bft) S-SO 157 13,1 C 22,8 C 0,0 km/h (0 Bft)
21.09.2014 12:20 20,7 C 57 % 1019,5 hPa 0,0 l/m 0,0 km/h (0 Bft) S-SO 157 11,9 C 22,8 C 0,0 km/h (0 Bft)
21.09.2014 12:30 22,1 C 48 % 1019,4 hPa 0,0 l/m 0,0 km/h (0 Bft) S-SO 157 10,6 C 22,8 C 0,0 km/h (0 Bft)
21.09.2014 12:39 21,7 C 52 % 1019,4 hPa 0,0 l/m 0,0 km/h (0 Bft) S-SO 157 11,4 C 22,8 C 0,0 km/h (0 Bft)
21.09.2014 12:40 21,7 C 52 % 1019,4 hPa 0,0 l/m 0,0 km/h (0 Bft) S-SO 157 11,4 C 22,8 C 0,0 km/h (0 Bft)
21.09.2014 12:50 20,2 C 54 % 1019,5 hPa 0,0 l/m 0,0 km/h (0 Bft) S-SO 157 10,6 C 22,8 C 0,0 km/h (0 Bft)
21.09.2014 13:00 19,5 C 57 % 1019,5 hPa 0,0 l/m 0,0 km/h (0 Bft) S-SO 157 10,8 C 22,8 C 0,0 km/h (0 Bft)
21.09.2014 13:10 19,2 C 58 % 1019,5 hPa 0,0 l/m 0,0 km/h (0 Bft) S-SO 157 10,7 C 22,8 C 0,0 km/h (0 Bft)
21.09.2014 13:20 18,8 C 58 % 1019,5 hPa 0,0 l/m 0,0 km/h (0 Bft) S-SO 157 10,4 C 22,8 C 0,0 km/h (0 Bft)
21.09.2014 13:30 18,7 C 59 % 1019,2 hPa 0,0 l/m 0,0 km/h (0 Bft) S-SO 157 10,5 C 22,8 C 0,0 km/h (0 Bft)
21.09.2014 13:40 18,8 C 59 % 1019,2 hPa 0,0 l/m 0,0 km/h (0 Bft) S-SO 157 10,6 C 22,8 C 0,0 km/h (0 Bft)
21.09.2014 13:50 21,5 C 53 % 1019,0 hPa 0,0 l/m 0,0 km/h (0 Bft) S-SO 157 11,5 C 22,8 C 0,0 km/h (0 Bft)
21.09.2014 14:00 21,3 C 49 % 1019,0 hPa 0,0 l/m 0,0 km/h (0 Bft) S-SO 157 10,1 C 22,8 C 0,0 km/h (0 Bft)
21.09.2014 14:10 21,0 C 48 % 1018,8 hPa 0,0 l/m 0,0 km/h (0 Bft) S-SO 157 9,6 C 22,8 C 0,0 km/h (0 Bft)
21.09.2014 14:20 21,4 C 49 % 1018,8 hPa 0,0 l/m 0,0 km/h (0 Bft) S-SO 157 10,2 C 22,8 C 0,0 km/h (0 Bft)
21.09.2014 14:30 20,5 C 52 % 1018,6 hPa 0,0 l/m 0,0 km/h (0 Bft) S-SO 157 10,3 C 22,8 C 0,0 km/h (0 Bft)
21.09.2014 14:40 22,0 C 48 % 1018,6 hPa 0,0 l/m 0,0 km/h (0 Bft) S-SO 157 10,5 C 22,8 C 0,0 km/h (0 Bft)
21.09.2014 14:50 22,1 C 48 % 1018,4 hPa 0,0 l/m 0,0 km/h (0 Bft) S-SO 157 10,6 C 22,8 C 0,0 km/h (0 Bft)
21.09.2014 15:00 21,8 C 48 % 1018,4 hPa 0,0 l/m 0,0 km/h (0 Bft) S-SO 157 10,3 C 22,8 C 0,0 km/h (0 Bft)
21.09.2014 15:10 22,1 C 48 % 1018,3 hPa 0,0 l/m 0,0 km/h (0 Bft) S-SO 157 10,6 C 22,8 C 0,0 km/h (0 Bft)
21.09.2014 15:20 21,3 C 48 % 1018,3 hPa 0,0 l/m 0,0 km/h (0 Bft) S-SO 157 9,8 C 22,8 C 0,0 km/h (0 Bft)
21.09.2014 15:30 22,3 C 47 % 1018,3 hPa 0,0 l/m 0,0 km/h (0 Bft) S-SO 157 10,4 C 22,8 C 0,0 km/h (0 Bft)
21.09.2014 15:40 21,6 C 49 % 1018,3 hPa 0,0 l/m 0,0 km/h (0 Bft) S-SO 157 10,4 C 22,8 C 0,0 km/h (0 Bft)
21.09.2014 15:50 20,2 C 52 % 1018,3 hPa 0,0 l/m 0,0 km/h (0 Bft) S-SO 157 10,0 C 22,8 C 0,0 km/h (0 Bft)
21.09.2014 16:00 18,9 C 58 % 1018,3 hPa 0,0 l/m 0,0 km/h (0 Bft) S-SO 157 10,5 C 22,8 C 0,0 km/h (0 Bft)
21.09.2014 16:10 19,0 C 60 % 1018,2 hPa 0,0 l/m 0,0 km/h (0 Bft) S-SO 157 11,1 C 22,8 C 0,0 km/h (0 Bft)
21.09.2014 16:20 18,7 C 62 % 1018,2 hPa 0,0 l/m 0,0 km/h (0 Bft) S-SO 157 11,3 C 22,8 C 0,0 km/h (0 Bft)
21.09.2014 16:30 18,7 C 62 % 1018,2 hPa 0,0 l/m 0,0 km/h (0 Bft) S-SO 157 11,3 C 22,8 C 0,0 km/h (0 Bft)
21.09.2014 16:38 18,7 C 61 % 1018,2 hPa 0,0 l/m 0,0 km/h (0 Bft) S-SO 157 11,0 C 22,8 C 0,0 km/h (0 Bft)
21.09.2014 16:40 18,7 C 61 % 1018,2 hPa 0,0 l/m 0,0 km/h (0 Bft) S-SO 157 11,0 C 22,8 C 0,0 km/h (0 Bft)
21.09.2014 16:50 18,5 C 63 % 1017,9 hPa 0,0 l/m 0,0 km/h (0 Bft) S-SO 157 11,3 C 22,8 C 0,0 km/h (0 Bft)
21.09.2014 17:00 18,1 C 64 % 1017,9 hPa 0,0 l/m 0,0 km/h (0 Bft) S-SO 157 11,2 C 22,8 C 0,0 km/h (0 Bft)
21.09.2014 17:10 17,6 C 66 % 1017,9 hPa 0,0 l/m 0,0 km/h (0 Bft) S-SO 157 11,2 C 22,8 C 0,0 km/h (0 Bft)
21.09.2014 17:20 14,4 C 76 % 1017,9 hPa 0,0 l/m 0,0 km/h (0 Bft) S-SO 157 10,2 C 22,8 C 0,0 km/h (0 Bft)
21.09.2014 17:30 12,3 C 87 % 1018,9 hPa 0,0 l/m 0,0 km/h (0 Bft) S-SO 157 10,2 C 22,8 C 0,0 km/h (0 Bft)
21.09.2014 17:40 12,3 C 89 % 1018,9 hPa 0,0 l/m 0,0 km/h (0 Bft) S-SO 157 10,5 C 22,8 C 0,0 km/h (0 Bft)
21.09.2014 17:50 12,1 C 91 % 1018,8 hPa 0,0 l/m 0,0 km/h (0 Bft) S-SO 157 10,7 C 22,8 C 0,0 km/h (0 Bft)
21.09.2014 18:00 11,8 C 91 % 1018,8 hPa 0,0 l/m 0,0 km/h (0 Bft) S-SO 157 10,4 C 22,8 C 0,0 km/h (0 Bft)
21.09.2014 18:10 11,7 C 92 % 1018,3 hPa 0,0 l/m 0,0 km/h (0 Bft) S-SO 157 10,4 C 22,8 C 0,0 km/h (0 Bft)
21.09.2014 18:20 11,8 C 92 % 1018,3 hPa 0,0 l/m 0,0 km/h (0 Bft) S-SO 157 10,5 C 22,8 C 0,0 km/h (0 Bft)
21.09.2014 18:30 11,8 C 93 % 1017,9 hPa 0,0 l/m 0,0 km/h (0 Bft) S-SO 157 10,7 C 22,8 C 0,0 km/h (0 Bft)
21.09.2014 18:40 11,8 C 93 % 1017,9 hPa 0,0 l/m 0,0 km/h (0 Bft) S-SO 157 10,7 C 22,8 C 0,0 km/h (0 Bft)
21.09.2014 18:50 11,6 C 93 % 1017,8 hPa 0,0 l/m 0,0 km/h (0 Bft) S-SO 157 10,5 C 22,8 C 0,0 km/h (0 Bft)
21.09.2014 19:00 11,7 C 93 % 1017,8 hPa 0,0 l/m 0,0 km/h (0 Bft) S-SO 157 10,6 C 22,8 C 0,0 km/h (0 Bft)
21.09.2014 19:10 11,6 C 93 % 1018,1 hPa 0,0 l/m 0,0 km/h (0 Bft) S-SO 157 10,5 C 22,8 C 0,0 km/h (0 Bft)
21.09.2014 19:20 11,6 C 94 % 1018,1 hPa 0,0 l/m 0,0 km/h (0 Bft) S-SO 157 10,7 C 22,8 C 0,0 km/h (0 Bft)
21.09.2014 19:30 11,5 C 94 % 1018,1 hPa 0,0 l/m 0,0 km/h (0 Bft) S-SO 157 10,6 C 22,8 C 0,0 km/h (0 Bft)
21.09.2014 19:40 11,5 C 94 % 1018,1 hPa 0,0 l/m 0,0 km/h (0 Bft) S-SO 157 10,6 C 22,8 C 0,0 km/h (0 Bft)
21.09.2014 19:50 11,5 C 94 % 1018,0 hPa 0,0 l/m 0,0 km/h (0 Bft) S-SO 157 10,6 C 22,8 C 0,0 km/h (0 Bft)
21.09.2014 20:00 11,5 C 94 % 1018,0 hPa 0,0 l/m 0,0 km/h (0 Bft) S-SO 157 10,6 C 22,8 C 0,0 km/h (0 Bft)
21.09.2014 20:10 11,4 C 94 % 1017,9 hPa 0,0 l/m 0,0 km/h (0 Bft) S-SO 157 10,5 C 22,8 C 0,0 km/h (0 Bft)
21.09.2014 20:20 11,5 C 94 % 1017,9 hPa 0,0 l/m 0,0 km/h (0 Bft) S-SO 157 10,6 C 22,8 C 0,0 km/h (0 Bft)
21.09.2014 20:30 11,6 C 94 % 1018,1 hPa 0,0 l/m 0,0 km/h (0 Bft) S-SO 157 10,7 C 22,8 C 0,0 km/h (0 Bft)
21.09.2014 20:38 11,6 C 94 % 1018,1 hPa 0,0 l/m 0,0 km/h (0 Bft) S-SO 157 10,7 C 22,8 C 0,0 km/h (0 Bft)
21.09.2014 20:40 11,6 C 94 % 1018,1 hPa 0,0 l/m 0,0 km/h (0 Bft) S-SO 157 10,7 C 22,8 C 0,0 km/h (0 Bft)
21.09.2014 20:50 11,5 C 94 % 1017,9 hPa 0,0 l/m 0,0 km/h (0 Bft) S-SO 157 10,6 C 22,8 C 0,0 km/h (0 Bft)
21.09.2014 21:00 11,4 C 94 % 1017,9 hPa 0,0 l/m 0,0 km/h (0 Bft) S-SO 157 10,5 C 22,8 C 0,0 km/h (0 Bft)
21.09.2014 21:10 11,6 C 95 % 1017,9 hPa 0,0 l/m 0,0 km/h (0 Bft) S-SO 157 10,8 C 22,8 C 0,0 km/h (0 Bft)
21.09.2014 21:20 11,7 C 95 % 1017,9 hPa 0,0 l/m 0,0 km/h (0 Bft) S-SO 157 10,9 C 22,8 C 0,0 km/h (0 Bft)
21.09.2014 21:30 11,7 C 95 % 1017,8 hPa 0,0 l/m 0,0 km/h (0 Bft) S-SO 157 10,9 C 22,8 C 0,0 km/h (0 Bft)
21.09.2014 21:40 11,7 C 95 % 1017,8 hPa 0,0 l/m 0,0 km/h (0 Bft) S-SO 157 10,9 C 22,8 C 0,0 km/h (0 Bft)
21.09.2014 21:50 11,6 C 95 % 1017,8 hPa 0,0 l/m 0,0 km/h (0 Bft) S-SO 157 10,8 C 22,8 C 0,0 km/h (0 Bft)
21.09.2014 22:00 11,7 C 95 % 1017,8 hPa 0,0 l/m 0,0 km/h (0 Bft) S-SO 157 10,9 C 22,8 C 0,0 km/h (0 Bft)
21.09.2014 22:10 11,8 C 95 % 1018,1 hPa 0,0 l/m 0,0 km/h (0 Bft) S-SO 157 11,0 C 22,8 C 0,0 km/h (0 Bft)
21.09.2014 22:20 11,9 C 95 % 1018,1 hPa 0,0 l/m 0,0 km/h (0 Bft) S-SO 157 11,1 C 22,8 C 0,0 km/h (0 Bft)
21.09.2014 22:30 12,0 C 95 % 1018,2 hPa 0,0 l/m 0,0 km/h (0 Bft) S-SO 157 11,2 C 22,8 C 0,0 km/h (0 Bft)
21.09.2014 22:40 12,0 C 95 % 1018,2 hPa 0,0 l/m 0,0 km/h (0 Bft) S-SO 157 11,2 C 22,8 C 0,0 km/h (0 Bft)
21.09.2014 22:50 11,8 C 95 % 1018,4 hPa 0,0 l/m 0,0 km/h (0 Bft) S-SO 157 11,0 C 22,8 C 0,0 km/h (0 Bft)
21.09.2014 23:00 11,8 C 95 % 1018,4 hPa 0,0 l/m 0,0 km/h (0 Bft) S-SO 157 11,0 C 22,8 C 0,0 km/h (0 Bft)
21.09.2014 23:10 11,0 C 95 % 1018,6 hPa 0,0 l/m 0,0 km/h (0 Bft) S-SO 157 10,2 C 22,8 C 0,0 km/h (0 Bft)
21.09.2014 23:20 10,7 C 95 % 1018,6 hPa 0,0 l/m 0,0 km/h (0 Bft) S-SO 157 9,9 C 22,8 C 0,0 km/h (0 Bft)
21.09.2014 23:29 10,6 C 95 % 1019,2 hPa 0,0 l/m 0,0 km/h (0 Bft) S-SO 157 9,8 C 22,8 C 0,0 km/h (0 Bft)
21.09.2014 23:30 10,6 C 95 % 1019,2 hPa 0,0 l/m 0,0 km/h (0 Bft) S-SO 157 9,8 C 22,8 C 0,0 km/h (0 Bft)
21.09.2014 23:40 10,6 C 95 % 1019,2 hPa 0,0 l/m 0,0 km/h (0 Bft) S-SO 157 9,8 C 22,8 C 0,0 km/h (0 Bft)
21.09.2014 23:50 10,6 C 95 % 1019,6 hPa 0,0 l/m 0,0 km/h (0 Bft) S-SO 157 9,8 C 22,8 C 0,0 km/h (0 Bft)
_ Min-Zeit 07:10 15:30 22:00 - 23:50 - - 06:20 23:50 23:50
Minimum _ 9,1 C 47 % 1017,8 hPa - 0,0 km/h (0 Bft) - - 7,9 C 22,8 C 0,0 km/h (0 Bft)
_ Max-Zeit 15:30 23:50 00:20 23:50 23:50 - - 09:20 23:50 23:50
Maximum _ 22,3 C 95 % 1020,4 hPa 0,0 l/m 0,0 km/h
S-SO (0 Bft)
- - 15,4 C 22,8 C 0,0 km/h
S-SO (0 Bft)
Durchschnitt _ 13,9 C 82 % 1019,0 hPa #0,0 l/m 0,0 km/h (0 Bft) - - - 10,5 C 22,8 C 0,0 km/h (0 Bft)